createdAt,value
2018-03-23T00:00:17.334Z,130.70
2018-03-23T00:01:17.227Z,114.50
2018-03-23T00:02:17.124Z,106.50
2018-03-23T00:03:17.034Z,122.50
2018-03-23T00:04:16.918Z,120.70
2018-03-23T00:05:16.814Z,122.80
2018-03-23T00:06:16.710Z,114.60
2018-03-23T00:07:16.607Z,105.80
2018-03-23T00:08:16.504Z,113.50
2018-03-23T00:09:16.406Z,110.80
2018-03-23T00:10:16.291Z,115.40
2018-03-23T00:11:16.194Z,112.90
2018-03-23T00:12:16.091Z,107.00
2018-03-23T00:13:15.987Z,107.70
2018-03-23T00:14:15.884Z,115.40
2018-03-23T00:15:15.780Z,103.00
2018-03-23T00:16:15.677Z,108.00
2018-03-23T00:17:15.574Z,93.00
2018-03-23T00:18:15.475Z,109.30
2018-03-23T00:19:15.367Z,102.60
2018-03-23T00:20:15.264Z,94.40
2018-03-23T00:21:15.160Z,87.60
2018-03-23T00:22:15.046Z,96.20
2018-03-23T00:23:14.943Z,75.90
2018-03-23T00:24:14.840Z,83.80
2018-03-23T00:25:14.735Z,91.40
2018-03-23T00:26:14.632Z,88.90
2018-03-23T00:27:14.529Z,86.40
2018-03-23T00:28:14.426Z,85.30
2018-03-23T00:29:14.339Z,87.30
2018-03-23T00:30:14.219Z,78.70
2018-03-23T00:31:14.116Z,81.00
2018-03-23T00:32:14.013Z,86.80
2018-03-23T00:33:13.912Z,78.80
2018-03-23T00:34:13.807Z,89.00
2018-03-23T00:35:13.703Z,79.10
2018-03-23T00:36:13.599Z,90.30
2018-03-23T00:37:13.496Z,91.90
2018-03-23T00:38:13.392Z,92.00
2018-03-23T00:39:13.289Z,85.80
2018-03-23T00:40:13.186Z,81.70
2018-03-23T00:41:13.083Z,80.50
2018-03-23T00:42:12.985Z,83.00
2018-03-23T00:43:12.866Z,81.90
2018-03-23T00:44:12.761Z,76.60
2018-03-23T00:45:12.661Z,70.70
2018-03-23T00:46:12.553Z,73.70
2018-03-23T00:47:12.462Z,72.20
2018-03-23T00:48:12.346Z,69.40
2018-03-23T00:49:12.244Z,73.80
2018-03-23T00:50:12.140Z,73.70
2018-03-23T00:51:12.036Z,67.90
2018-03-23T00:52:11.932Z,69.40
2018-03-23T00:53:11.829Z,67.20
2018-03-23T00:54:11.725Z,64.20
2018-03-23T00:55:11.623Z,69.90
2018-03-23T00:56:11.519Z,67.50
2018-03-23T00:57:11.416Z,75.80
2018-03-23T00:58:11.313Z,58.60
2018-03-23T00:59:11.210Z,64.60
2018-03-23T01:00:11.119Z,64.00
2018-03-23T01:01:11.002Z,64.90
2018-03-23T01:02:10.904Z,62.20
2018-03-23T01:03:10.796Z,67.50
2018-03-23T01:04:10.693Z,69.60
2018-03-23T01:05:10.602Z,73.80
2018-03-23T01:06:10.475Z,61.40
2018-03-23T01:07:10.371Z,67.60
2018-03-23T01:08:10.269Z,62.30
2018-03-23T01:09:10.168Z,76.30
2018-03-23T01:10:10.061Z,65.70
2018-03-23T01:11:09.958Z,67.00
2018-03-23T01:12:09.854Z,62.50
2018-03-23T01:13:09.751Z,60.40
2018-03-23T01:14:09.648Z,48.90
2018-03-23T01:15:09.545Z,43.80
2018-03-23T01:16:09.441Z,40.10
2018-03-23T01:17:09.339Z,39.10
2018-03-23T01:18:09.239Z,40.50
2018-03-23T01:19:09.131Z,41.50
2018-03-23T01:20:09.028Z,43.50
2018-03-23T01:21:08.924Z,40.40
2018-03-23T01:22:08.822Z,37.20
2018-03-23T01:23:08.719Z,43.10
2018-03-23T01:24:08.615Z,37.70
2018-03-23T01:25:08.500Z,42.50
2018-03-23T01:26:08.397Z,41.10
2018-03-23T01:27:08.305Z,41.60
2018-03-23T01:28:08.187Z,46.20
2018-03-23T01:29:08.084Z,44.90
2018-03-23T01:30:07.981Z,44.20
2018-03-23T01:31:07.879Z,48.00
2018-03-23T01:32:07.775Z,45.70
2018-03-23T01:33:07.672Z,42.20
2018-03-23T01:34:07.568Z,42.50
2018-03-23T01:35:07.465Z,46.00
2018-03-23T01:36:07.349Z,39.30
2018-03-23T01:37:07.255Z,38.00
2018-03-23T01:38:07.142Z,45.10
2018-03-23T01:39:07.040Z,50.10
2018-03-23T01:40:06.936Z,53.00
2018-03-23T01:41:06.834Z,46.90
2018-03-23T01:42:06.730Z,47.00
2018-03-23T01:43:06.632Z,49.10
2018-03-23T01:44:06.512Z,43.70
2018-03-23T01:45:06.407Z,46.20
2018-03-23T01:46:06.303Z,48.70
2018-03-23T01:47:06.201Z,39.80
2018-03-23T01:48:06.096Z,48.00
2018-03-23T01:49:05.998Z,48.30
2018-03-23T01:50:05.893Z,51.20
2018-03-23T01:51:05.786Z,51.40
2018-03-23T01:52:05.933Z,55.00
2018-03-23T01:53:05.580Z,45.80
2018-03-23T01:54:05.464Z,47.40
2018-03-23T01:55:05.362Z,48.50
2018-03-23T01:56:05.259Z,50.60
2018-03-23T01:57:05.156Z,50.20
2018-03-23T01:58:05.052Z,57.20
2018-03-23T01:59:04.949Z,52.40
2018-03-23T02:00:04.845Z,54.70
2018-03-23T02:01:04.742Z,54.10
2018-03-23T02:02:04.926Z,52.90
2018-03-23T02:03:04.523Z,57.00
2018-03-23T02:04:04.419Z,60.50
2018-03-23T02:05:04.316Z,62.50
2018-03-23T02:06:04.212Z,56.00
2018-03-23T02:07:04.108Z,64.20
2018-03-23T02:08:04.005Z,60.70
2018-03-23T02:09:03.901Z,58.30
2018-03-23T02:10:03.798Z,65.70
2018-03-23T02:11:03.683Z,61.00
2018-03-23T02:12:03.581Z,65.00
2018-03-23T02:13:03.478Z,68.50
2018-03-23T02:14:03.374Z,69.00
2018-03-23T02:15:03.270Z,68.80
2018-03-23T02:16:03.166Z,73.40
2018-03-23T02:17:03.063Z,68.30
2018-03-23T02:18:02.961Z,66.70
2018-03-23T02:19:02.845Z,68.50
2018-03-23T02:20:02.741Z,69.30
2018-03-23T02:21:02.637Z,64.30
2018-03-23T02:22:02.834Z,63.20
2018-03-23T02:23:02.431Z,64.90
2018-03-23T02:24:02.328Z,70.00
2018-03-23T02:25:02.223Z,67.10
2018-03-23T02:26:02.120Z,67.70
2018-03-23T02:27:02.017Z,74.30
2018-03-23T02:28:01.902Z,77.30
2018-03-23T02:29:01.799Z,75.50
2018-03-23T02:30:01.697Z,71.30
2018-03-23T02:31:01.593Z,69.90
2018-03-23T02:32:01.496Z,75.40
2018-03-23T02:33:01.387Z,66.80
2018-03-23T02:34:01.274Z,64.00
2018-03-23T02:35:01.180Z,69.90
2018-03-23T02:36:01.077Z,69.20
2018-03-23T02:37:00.962Z,65.50
2018-03-23T02:38:00.859Z,67.10
2018-03-23T02:39:00.752Z,66.30
2018-03-23T02:40:00.648Z,60.70
2018-03-23T02:41:00.546Z,58.70
2018-03-23T02:42:00.442Z,57.30
2018-03-23T02:43:00.340Z,55.10
2018-03-23T02:44:00.238Z,58.20
2018-03-23T02:45:00.122Z,61.80
2018-03-23T02:46:00.028Z,60.40
2018-03-23T02:46:59.915Z,62.80
2018-03-23T02:47:59.811Z,61.90
2018-03-23T02:48:59.708Z,60.40
2018-03-23T02:49:59.605Z,58.70
2018-03-23T02:50:59.501Z,55.40
2018-03-23T02:51:59.399Z,53.30
2018-03-23T02:52:59.283Z,59.30
2018-03-23T02:53:59.178Z,50.60
2018-03-23T02:54:59.138Z,52.70
2018-03-23T02:55:58.972Z,53.30
2018-03-23T02:56:58.869Z,54.10
2018-03-23T02:57:58.766Z,52.40
2018-03-23T02:58:58.662Z,53.60
2018-03-23T02:59:58.559Z,57.40
2018-03-23T03:00:58.444Z,51.00
2018-03-23T03:01:58.342Z,55.10
2018-03-23T03:02:58.236Z,52.00
2018-03-23T03:03:58.133Z,52.20
2018-03-23T03:04:58.030Z,46.80
2018-03-23T03:05:57.927Z,56.40
2018-03-23T03:06:58.072Z,51.40
2018-03-23T03:07:57.724Z,54.80
2018-03-23T03:08:57.603Z,48.70
2018-03-23T03:09:57.499Z,49.20
2018-03-23T03:10:57.397Z,48.40
2018-03-23T03:11:57.292Z,47.90
2018-03-23T03:12:57.191Z,45.20
2018-03-23T03:13:57.100Z,53.90
2018-03-23T03:14:56.982Z,48.10
2018-03-23T03:15:56.879Z,43.30
2018-03-23T03:16:56.768Z,46.30
2018-03-23T03:17:56.662Z,41.60
2018-03-23T03:18:56.558Z,41.80
2018-03-23T03:19:56.455Z,43.10
2018-03-23T03:20:56.351Z,44.60
2018-03-23T03:21:56.248Z,42.80
2018-03-23T03:22:56.144Z,42.70
2018-03-23T03:23:56.029Z,42.00
2018-03-23T03:24:55.926Z,43.80
2018-03-23T03:25:55.821Z,39.70
2018-03-23T03:26:55.717Z,42.50
2018-03-23T03:27:55.621Z,45.40
2018-03-23T03:28:55.512Z,43.80
2018-03-23T03:29:55.408Z,40.80
2018-03-23T03:30:55.307Z,40.10
2018-03-23T03:31:55.190Z,43.20
2018-03-23T03:32:55.086Z,45.90
2018-03-23T03:33:54.983Z,49.30
2018-03-23T03:34:54.880Z,44.90
2018-03-23T03:35:54.779Z,44.20
2018-03-23T03:36:54.673Z,46.90
2018-03-23T03:37:54.570Z,45.80
2018-03-23T03:38:54.454Z,50.50
2018-03-23T03:39:54.350Z,44.40
2018-03-23T03:40:54.247Z,48.90
2018-03-23T03:41:54.146Z,44.30
2018-03-23T03:42:54.045Z,43.80
2018-03-23T03:43:53.937Z,45.70
2018-03-23T03:44:53.835Z,43.50
2018-03-23T03:45:53.730Z,46.50
2018-03-23T03:46:53.622Z,47.70
2018-03-23T03:47:53.512Z,47.90
2018-03-23T03:48:53.407Z,43.60
2018-03-23T03:49:53.305Z,45.50
2018-03-23T03:50:53.202Z,44.20
2018-03-23T03:51:53.099Z,44.40
2018-03-23T03:52:52.994Z,45.70
2018-03-23T03:53:52.880Z,42.40
2018-03-23T03:54:52.787Z,40.70
2018-03-23T03:55:52.676Z,38.30
2018-03-23T03:56:52.819Z,38.50
2018-03-23T03:57:52.465Z,37.70
2018-03-23T03:58:52.362Z,39.10
2018-03-23T03:59:52.259Z,40.00
2018-03-23T04:00:52.155Z,41.20
2018-03-23T04:01:52.052Z,37.20
2018-03-23T04:02:51.938Z,41.20
2018-03-23T04:03:51.837Z,40.90
2018-03-23T04:04:51.731Z,42.90
2018-03-23T04:05:51.627Z,40.80
2018-03-23T04:06:51.774Z,36.10
2018-03-23T04:07:51.420Z,35.30
2018-03-23T04:08:51.317Z,37.40
2018-03-23T04:09:51.202Z,34.70
2018-03-23T04:10:51.098Z,36.30
2018-03-23T04:11:50.994Z,39.40
2018-03-23T04:12:50.890Z,37.50
2018-03-23T04:13:50.787Z,40.00
2018-03-23T04:14:50.685Z,41.20
2018-03-23T04:15:50.595Z,37.10
2018-03-23T04:16:50.477Z,39.80
2018-03-23T04:17:50.373Z,40.10
2018-03-23T04:18:50.258Z,39.80
2018-03-23T04:19:50.156Z,40.30
2018-03-23T04:20:50.052Z,36.00
2018-03-23T04:21:49.949Z,42.60
2018-03-23T04:22:49.847Z,41.10
2018-03-23T04:23:49.742Z,44.90
2018-03-23T04:24:49.639Z,41.50
2018-03-23T04:25:49.541Z,40.00
2018-03-23T04:26:49.421Z,40.00
2018-03-23T04:27:49.344Z,43.70
2018-03-23T04:28:49.212Z,40.80
2018-03-23T04:29:49.109Z,40.30
2018-03-23T04:30:49.006Z,42.80
2018-03-23T04:31:48.903Z,42.60
2018-03-23T04:32:48.799Z,39.00
2018-03-23T04:33:48.696Z,39.50
2018-03-23T04:34:48.593Z,42.60
2018-03-23T04:35:48.489Z,39.70
2018-03-23T04:36:48.381Z,37.80
2018-03-23T04:37:48.275Z,40.10
2018-03-23T04:38:48.168Z,39.90
2018-03-23T04:39:48.065Z,40.40
2018-03-23T04:40:47.962Z,37.90
2018-03-23T04:41:48.108Z,40.90
2018-03-23T04:42:47.755Z,43.20
2018-03-23T04:43:47.652Z,43.80
2018-03-23T04:44:47.548Z,44.60
2018-03-23T04:45:47.432Z,46.30
2018-03-23T04:46:47.342Z,43.50
2018-03-23T04:47:47.224Z,46.50
2018-03-23T04:48:47.121Z,41.90
2018-03-23T04:49:47.018Z,42.30
2018-03-23T04:50:46.915Z,44.60
2018-03-23T04:51:46.810Z,45.10
2018-03-23T04:52:46.708Z,49.40
2018-03-23T04:53:46.604Z,51.90
2018-03-23T04:54:46.501Z,49.80
2018-03-23T04:55:46.387Z,50.30
2018-03-23T04:56:46.283Z,54.40
2018-03-23T04:57:46.179Z,58.30
2018-03-23T04:58:46.076Z,58.10
2018-03-23T04:59:45.978Z,59.70
2018-03-23T05:00:45.869Z,61.30
2018-03-23T05:01:46.016Z,62.60
2018-03-23T05:02:45.666Z,60.80
2018-03-23T05:03:45.559Z,65.90
2018-03-23T05:04:45.457Z,62.60
2018-03-23T05:05:45.340Z,65.70
2018-03-23T05:06:45.245Z,64.20
2018-03-23T05:07:45.133Z,67.00
2018-03-23T05:08:45.043Z,67.60
2018-03-23T05:09:44.927Z,67.60
2018-03-23T05:10:44.826Z,65.50
2018-03-23T05:11:44.720Z,68.20
2018-03-23T05:12:44.617Z,70.90
2018-03-23T05:13:44.519Z,70.10
2018-03-23T05:14:44.409Z,71.20
2018-03-23T05:15:44.307Z,74.70
2018-03-23T05:16:44.193Z,67.10
2018-03-23T05:17:44.094Z,69.90
2018-03-23T05:18:43.985Z,70.30
2018-03-23T05:19:43.882Z,74.90
2018-03-23T05:20:43.779Z,77.00
2018-03-23T05:21:43.676Z,73.50
2018-03-23T05:22:43.575Z,74.40
2018-03-23T05:23:43.469Z,74.00
2018-03-23T05:24:43.371Z,73.00
2018-03-23T05:25:43.261Z,77.70
2018-03-23T05:26:43.159Z,80.20
2018-03-23T05:27:43.046Z,70.70
2018-03-23T05:28:42.939Z,76.40
2018-03-23T05:29:42.835Z,75.40
2018-03-23T05:30:42.737Z,75.80
2018-03-23T05:31:42.642Z,69.70
2018-03-23T05:32:42.526Z,76.00
2018-03-23T05:33:42.421Z,70.10
2018-03-23T05:34:42.318Z,71.00
2018-03-23T05:35:42.215Z,70.10
2018-03-23T05:36:42.112Z,55.50
2018-03-23T05:37:42.009Z,45.50
2018-03-23T05:38:41.905Z,55.20
2018-03-23T05:39:41.802Z,60.00
2018-03-23T05:40:41.737Z,65.00
2018-03-23T05:41:41.584Z,61.30
2018-03-23T05:42:41.483Z,62.50
2018-03-23T05:43:41.377Z,59.60
2018-03-23T05:44:41.273Z,57.60
2018-03-23T05:45:41.170Z,62.50
2018-03-23T05:46:41.066Z,63.20
2018-03-23T05:47:40.964Z,61.10
2018-03-23T05:48:40.864Z,62.00
2018-03-23T05:49:40.757Z,59.50
2018-03-23T05:50:40.654Z,62.70
2018-03-23T05:51:40.552Z,61.80
2018-03-23T05:52:40.448Z,57.90
2018-03-23T05:53:40.332Z,51.20
2018-03-23T05:54:40.228Z,47.30
2018-03-23T05:55:40.124Z,36.90
2018-03-23T05:56:40.021Z,33.00
2018-03-23T05:57:39.931Z,34.30
2018-03-23T05:58:39.814Z,32.50
2018-03-23T05:59:39.710Z,36.00
2018-03-23T06:00:39.612Z,30.80
2018-03-23T06:01:39.504Z,30.30
2018-03-23T06:02:39.401Z,30.10
2018-03-23T06:03:39.297Z,27.70
2018-03-23T06:04:39.194Z,30.60
2018-03-23T06:05:39.091Z,34.10
2018-03-23T06:06:38.987Z,31.70
2018-03-23T06:07:38.883Z,31.80
2018-03-23T06:08:38.768Z,32.00
2018-03-23T06:09:38.666Z,33.80
2018-03-23T06:10:38.563Z,31.10
2018-03-23T06:11:38.459Z,29.40
2018-03-23T06:12:38.356Z,26.00
2018-03-23T06:13:38.257Z,32.60
2018-03-23T06:14:38.150Z,30.90
2018-03-23T06:15:38.046Z,24.10
2018-03-23T06:16:37.944Z,23.00
2018-03-23T06:17:37.841Z,28.50
2018-03-23T06:18:37.736Z,26.60
2018-03-23T06:19:37.632Z,26.40
2018-03-23T06:20:37.530Z,25.30
2018-03-23T06:21:37.414Z,26.80
2018-03-23T06:22:37.324Z,27.00
2018-03-23T06:23:37.207Z,29.40
2018-03-23T06:24:37.105Z,25.60
2018-03-23T06:25:36.999Z,25.20
2018-03-23T06:26:37.146Z,23.90
2018-03-23T06:27:36.795Z,25.30
2018-03-23T06:28:36.689Z,23.60
2018-03-23T06:29:36.586Z,27.60
2018-03-23T06:30:36.482Z,24.00
2018-03-23T06:31:36.380Z,31.20
2018-03-23T06:32:36.276Z,26.60
2018-03-23T06:33:36.188Z,23.00
2018-03-23T06:34:36.069Z,30.40
2018-03-23T06:35:35.978Z,29.20
2018-03-23T06:36:35.862Z,28.40
2018-03-23T06:37:35.759Z,27.70
2018-03-23T06:38:35.664Z,26.00
2018-03-23T06:39:35.553Z,30.10
2018-03-23T06:40:35.449Z,28.40
2018-03-23T06:41:35.337Z,32.30
2018-03-23T06:42:35.246Z,27.10
2018-03-23T06:43:35.134Z,26.80
2018-03-23T06:44:35.025Z,27.10
2018-03-23T06:45:34.921Z,27.50
2018-03-23T06:46:34.817Z,29.20
2018-03-23T06:47:34.714Z,29.70
2018-03-23T06:48:34.622Z,34.50
2018-03-23T06:49:34.511Z,32.50
2018-03-23T06:50:34.410Z,28.30
2018-03-23T06:51:34.305Z,28.10
2018-03-23T06:52:34.198Z,26.00
2018-03-23T06:53:34.094Z,28.40
2018-03-23T06:54:33.991Z,26.30
2018-03-23T06:55:33.887Z,33.00
2018-03-23T06:56:33.784Z,33.20
2018-03-23T06:57:33.685Z,33.30
2018-03-23T06:58:33.578Z,29.80
2018-03-23T06:59:33.475Z,26.90
2018-03-23T07:00:33.375Z,28.70
2018-03-23T07:01:33.268Z,33.00
2018-03-23T07:02:33.165Z,30.80
2018-03-23T07:03:33.061Z,30.80
2018-03-23T07:04:32.957Z,35.90
2018-03-23T07:05:32.856Z,31.40
2018-03-23T07:06:32.756Z,30.60
2018-03-23T07:07:32.648Z,33.80
2018-03-23T07:08:32.544Z,34.80
2018-03-23T07:09:32.442Z,29.40
2018-03-23T07:10:32.338Z,30.40
2018-03-23T07:11:32.234Z,31.10
2018-03-23T07:12:32.132Z,27.90
2018-03-23T07:13:32.029Z,28.00
2018-03-23T07:14:31.924Z,29.60
2018-03-23T07:15:31.862Z,27.60
2018-03-23T07:16:31.718Z,28.70
2018-03-23T07:17:31.615Z,29.40
2018-03-23T07:18:31.512Z,29.90
2018-03-23T07:19:31.418Z,30.10
2018-03-23T07:20:31.305Z,31.60
2018-03-23T07:21:31.202Z,29.00
2018-03-23T07:22:31.099Z,33.70
2018-03-23T07:23:30.995Z,30.90
2018-03-23T07:24:30.892Z,30.70
2018-03-23T07:25:30.789Z,30.40
2018-03-23T07:26:30.685Z,34.80
2018-03-23T07:27:30.581Z,28.70
2018-03-23T07:28:30.479Z,28.00
2018-03-23T07:29:30.364Z,29.00
2018-03-23T07:30:30.263Z,29.80
2018-03-23T07:31:30.168Z,30.80
2018-03-23T07:32:30.065Z,30.30
2018-03-23T07:33:29.950Z,29.00
2018-03-23T07:34:29.846Z,30.50
2018-03-23T07:35:29.743Z,27.30
2018-03-23T07:36:29.640Z,29.30
2018-03-23T07:37:29.536Z,29.50
2018-03-23T07:38:29.433Z,30.70
2018-03-23T07:39:29.329Z,28.90
2018-03-23T07:40:29.226Z,28.60
2018-03-23T07:41:29.122Z,27.20
2018-03-23T07:42:29.020Z,24.60
2018-03-23T07:43:28.928Z,26.50
2018-03-23T07:44:28.813Z,24.70
2018-03-23T07:45:28.711Z,24.20
2018-03-23T07:46:28.610Z,25.20
2018-03-23T07:47:28.503Z,22.50
2018-03-23T07:48:28.412Z,24.70
2018-03-23T07:49:28.297Z,25.10
2018-03-23T07:50:28.212Z,27.00
2018-03-23T07:51:28.101Z,25.50
2018-03-23T07:52:27.999Z,24.70
2018-03-23T07:53:27.895Z,25.80
2018-03-23T07:54:27.792Z,24.50
2018-03-23T07:55:27.689Z,25.50
2018-03-23T07:56:27.585Z,25.40
2018-03-23T07:57:27.482Z,29.20
2018-03-23T07:58:27.379Z,24.60
2018-03-23T07:59:27.276Z,23.40
2018-03-23T08:00:27.172Z,25.80
2018-03-23T08:01:27.068Z,27.10
2018-03-23T08:02:26.970Z,28.10
2018-03-23T08:03:26.863Z,28.90
2018-03-23T08:04:26.761Z,26.90
2018-03-23T08:05:26.658Z,34.00
2018-03-23T08:06:26.552Z,30.80
2018-03-23T08:07:26.449Z,26.70
2018-03-23T08:08:26.346Z,29.70
2018-03-23T08:09:26.242Z,33.50
2018-03-23T08:10:26.139Z,33.60
2018-03-23T08:11:26.047Z,34.40
2018-03-23T08:12:25.943Z,33.80
2018-03-23T08:13:25.840Z,30.10
2018-03-23T08:14:25.737Z,31.30
2018-03-23T08:15:25.637Z,29.90
2018-03-23T08:16:25.531Z,32.40
2018-03-23T08:17:25.427Z,32.60
2018-03-23T08:18:25.325Z,35.00
2018-03-23T08:19:25.221Z,27.80
2018-03-23T08:20:25.117Z,32.40
2018-03-23T08:21:25.015Z,30.10
2018-03-23T08:22:24.912Z,30.80
2018-03-23T08:23:24.822Z,32.10
2018-03-23T08:24:24.703Z,31.00
2018-03-23T08:25:24.601Z,31.10
2018-03-23T08:26:24.497Z,33.10
2018-03-23T08:27:24.395Z,32.40
2018-03-23T08:28:24.304Z,28.70
2018-03-23T08:29:24.189Z,30.10
2018-03-23T08:30:24.098Z,31.00
2018-03-23T08:31:23.994Z,32.00
2018-03-23T08:32:23.892Z,30.80
2018-03-23T08:33:23.788Z,29.20
2018-03-23T08:34:23.684Z,33.00
2018-03-23T08:35:23.580Z,31.60
2018-03-23T08:36:23.531Z,29.70
2018-03-23T08:37:23.375Z,28.20
2018-03-23T08:38:23.272Z,28.00
2018-03-23T08:39:23.168Z,32.80
2018-03-23T08:40:23.064Z,32.80
2018-03-23T08:41:22.961Z,33.80
2018-03-23T08:42:22.858Z,35.00
2018-03-23T08:43:22.765Z,32.30
2018-03-23T08:44:22.673Z,27.00
2018-03-23T08:45:22.559Z,30.30
2018-03-23T08:46:22.456Z,29.70
2018-03-23T08:47:22.353Z,29.00
2018-03-23T08:48:22.254Z,31.30
2018-03-23T08:49:22.146Z,29.40
2018-03-23T08:50:22.045Z,31.70
2018-03-23T08:51:21.941Z,30.60
2018-03-23T08:52:21.836Z,27.80
2018-03-23T08:53:21.733Z,32.40
2018-03-23T08:54:21.645Z,30.90
2018-03-23T08:55:21.527Z,32.60
2018-03-23T08:56:21.426Z,34.90
2018-03-23T08:57:21.333Z,33.00
2018-03-23T08:58:21.231Z,30.00
2018-03-23T08:59:21.131Z,31.80
2018-03-23T09:00:21.023Z,31.80
2018-03-23T09:01:20.920Z,32.70
2018-03-23T09:02:20.816Z,34.80
2018-03-23T09:03:20.713Z,38.30
2018-03-23T09:04:20.610Z,34.90
2018-03-23T09:05:20.505Z,36.10
2018-03-23T09:06:20.402Z,41.60
2018-03-23T09:07:20.299Z,35.50
2018-03-23T09:08:20.210Z,37.50
2018-03-23T09:09:20.105Z,33.70
2018-03-23T09:10:20.004Z,33.60
2018-03-23T09:11:19.898Z,33.50
2018-03-23T09:12:19.795Z,33.20
2018-03-23T09:13:19.692Z,34.10
2018-03-23T09:14:19.588Z,36.20
2018-03-23T09:15:19.493Z,34.30
2018-03-23T09:16:19.389Z,34.90
2018-03-23T09:17:19.278Z,34.60
2018-03-23T09:18:19.176Z,35.80
2018-03-23T09:19:19.073Z,37.60
2018-03-23T09:20:18.982Z,34.70
2018-03-23T09:21:18.878Z,34.40
2018-03-23T09:22:18.775Z,37.70
2018-03-23T09:23:18.673Z,36.90
2018-03-23T09:24:18.568Z,36.70
2018-03-23T09:25:18.465Z,35.90
2018-03-23T09:26:18.363Z,35.20
2018-03-23T09:27:18.259Z,35.40
2018-03-23T09:28:18.155Z,38.00
2018-03-23T09:29:18.052Z,37.80
2018-03-23T09:30:17.962Z,33.30
2018-03-23T09:31:17.857Z,32.70
2018-03-23T09:32:17.754Z,32.70
2018-03-23T09:33:17.651Z,35.40
2018-03-23T09:34:17.547Z,33.10
2018-03-23T09:35:17.445Z,33.30
2018-03-23T09:36:17.340Z,37.20
2018-03-23T09:37:17.246Z,38.60
2018-03-23T09:38:17.134Z,39.70
2018-03-23T09:39:17.030Z,32.80
2018-03-23T09:40:16.928Z,32.00
2018-03-23T09:41:16.824Z,35.80
2018-03-23T09:42:16.722Z,34.20
2018-03-23T09:43:16.632Z,35.90
2018-03-23T09:44:16.527Z,34.10
2018-03-23T09:45:16.424Z,37.80
2018-03-23T09:46:16.321Z,38.20
2018-03-23T09:47:16.217Z,32.20
2018-03-23T09:48:16.115Z,34.40
2018-03-23T09:49:16.011Z,36.80
2018-03-23T09:50:15.907Z,31.20
2018-03-23T09:51:15.806Z,35.40
2018-03-23T09:52:15.705Z,32.80
2018-03-23T09:53:15.598Z,29.70
2018-03-23T09:54:15.505Z,32.80
2018-03-23T09:55:15.404Z,29.70
2018-03-23T09:56:15.313Z,33.70
2018-03-23T09:57:15.205Z,31.70
2018-03-23T09:58:15.092Z,29.90
2018-03-23T09:59:14.989Z,33.50
2018-03-23T10:00:14.885Z,30.60
2018-03-23T10:01:14.783Z,32.00
2018-03-23T10:02:14.680Z,34.20
2018-03-23T10:03:14.578Z,31.90
2018-03-23T10:04:14.486Z,32.60
2018-03-23T10:05:14.385Z,34.20
2018-03-23T10:06:14.280Z,28.90
2018-03-23T10:07:14.176Z,32.30
2018-03-23T10:08:14.076Z,30.80
2018-03-23T10:09:13.970Z,29.00
2018-03-23T10:10:13.866Z,30.90
2018-03-23T10:11:13.763Z,30.70
2018-03-23T10:12:13.660Z,31.10
2018-03-23T10:13:13.568Z,30.80
2018-03-23T10:14:13.464Z,33.50
2018-03-23T10:15:13.362Z,29.70
2018-03-23T10:16:13.265Z,31.20
2018-03-23T10:17:13.155Z,29.40
2018-03-23T10:18:13.064Z,33.90
2018-03-23T10:19:12.951Z,31.60
2018-03-23T10:20:12.845Z,30.60
2018-03-23T10:21:12.787Z,29.90
2018-03-23T10:22:12.640Z,31.60
2018-03-23T10:23:12.535Z,31.80
2018-03-23T10:24:12.431Z,29.20
2018-03-23T10:25:12.328Z,29.90
2018-03-23T10:26:12.225Z,29.70
2018-03-23T10:27:12.123Z,28.30
2018-03-23T10:28:12.031Z,29.30
2018-03-23T10:29:11.962Z,30.70
2018-03-23T10:30:11.824Z,29.50
2018-03-23T10:31:11.722Z,29.00
2018-03-23T10:32:11.618Z,29.90
2018-03-23T10:33:11.515Z,30.40
2018-03-23T10:34:11.411Z,29.40
2018-03-23T10:35:11.309Z,29.60
2018-03-23T10:36:11.205Z,30.60
2018-03-23T10:37:11.102Z,31.80
2018-03-23T10:38:10.998Z,32.20
2018-03-23T10:39:10.898Z,31.80
2018-03-23T10:40:10.791Z,33.40
2018-03-23T10:41:10.696Z,33.90
2018-03-23T10:42:10.584Z,32.70
2018-03-23T10:43:10.481Z,33.50
2018-03-23T10:44:10.378Z,36.40
2018-03-23T10:45:10.276Z,33.90
2018-03-23T10:46:10.172Z,35.90
2018-03-23T10:47:10.069Z,34.40
2018-03-23T10:48:09.965Z,35.50
2018-03-23T10:49:09.862Z,36.20
2018-03-23T10:50:09.759Z,41.60
2018-03-23T10:51:09.655Z,36.50
2018-03-23T10:52:09.572Z,36.90
2018-03-23T10:53:09.460Z,37.20
2018-03-23T10:54:09.346Z,37.20
2018-03-23T10:55:09.253Z,35.60
2018-03-23T10:56:09.152Z,35.70
2018-03-23T10:57:09.063Z,36.20
2018-03-23T10:58:08.943Z,35.30
2018-03-23T10:59:08.839Z,39.30
2018-03-23T11:00:08.736Z,38.80
2018-03-23T11:01:08.634Z,37.90
2018-03-23T11:02:08.530Z,36.40
2018-03-23T11:03:08.431Z,36.10
2018-03-23T11:04:08.323Z,36.80
2018-03-23T11:05:08.219Z,37.00
2018-03-23T11:06:08.116Z,37.40
2018-03-23T11:07:08.013Z,35.50
2018-03-23T11:08:07.910Z,35.00
2018-03-23T11:09:07.807Z,33.20
2018-03-23T11:10:07.706Z,37.80
2018-03-23T11:11:07.600Z,34.50
2018-03-23T11:12:07.497Z,36.90
2018-03-23T11:13:07.393Z,33.00
2018-03-23T11:14:07.292Z,35.20
2018-03-23T11:15:07.187Z,36.40
2018-03-23T11:16:07.084Z,38.00
2018-03-23T11:17:06.980Z,35.20
2018-03-23T11:18:06.878Z,38.80
2018-03-23T11:19:06.787Z,34.60
2018-03-23T11:20:06.675Z,35.50
2018-03-23T11:21:06.567Z,33.70
2018-03-23T11:22:06.467Z,32.70
2018-03-23T11:23:06.360Z,36.30
2018-03-23T11:24:06.261Z,40.30
2018-03-23T11:25:06.153Z,35.60
2018-03-23T11:26:06.051Z,34.30
2018-03-23T11:27:05.947Z,33.40
2018-03-23T11:28:05.845Z,34.00
2018-03-23T11:29:05.740Z,39.80
2018-03-23T11:30:05.637Z,32.80
2018-03-23T11:31:05.534Z,35.60
2018-03-23T11:32:05.431Z,35.30
2018-03-23T11:33:05.332Z,35.70
2018-03-23T11:34:05.224Z,36.00
2018-03-23T11:35:05.125Z,39.40
2018-03-23T11:36:05.017Z,36.50
2018-03-23T11:37:04.917Z,39.00
2018-03-23T11:38:04.810Z,38.60
2018-03-23T11:39:04.707Z,35.90
2018-03-23T11:40:04.606Z,39.50
2018-03-23T11:41:04.500Z,36.10
2018-03-23T11:42:04.397Z,36.30
2018-03-23T11:43:04.294Z,36.80
2018-03-23T11:44:04.191Z,40.00
2018-03-23T11:45:04.087Z,38.60
2018-03-23T11:46:03.984Z,39.50
2018-03-23T11:47:03.880Z,41.40
2018-03-23T11:48:03.777Z,40.80
2018-03-23T11:49:03.679Z,41.70
2018-03-23T11:50:03.573Z,36.10
2018-03-23T11:51:03.467Z,37.10
2018-03-23T11:52:03.364Z,40.20
2018-03-23T11:53:03.261Z,40.00
2018-03-23T11:54:03.159Z,40.40
2018-03-23T11:55:03.055Z,38.50
2018-03-23T11:56:02.951Z,37.50
2018-03-23T11:57:02.847Z,36.30
2018-03-23T11:58:02.744Z,36.90
2018-03-23T11:59:02.640Z,37.80
2018-03-23T12:00:02.537Z,42.40
2018-03-23T12:01:02.434Z,39.40
2018-03-23T12:02:02.360Z,41.00
2018-03-23T12:03:02.241Z,36.60
2018-03-23T12:04:02.127Z,36.40
2018-03-23T12:05:02.024Z,37.60
2018-03-23T12:06:01.917Z,34.60
2018-03-23T12:07:01.815Z,41.10
2018-03-23T12:08:01.712Z,36.00
2018-03-23T12:09:01.607Z,35.70
2018-03-23T12:10:01.504Z,35.00
2018-03-23T12:11:01.401Z,35.80
2018-03-23T12:12:01.297Z,35.90
2018-03-23T12:13:01.194Z,39.60
2018-03-23T12:14:01.091Z,39.20
2018-03-23T12:15:00.988Z,35.80
2018-03-23T12:16:00.884Z,36.00
2018-03-23T12:17:00.780Z,37.00
2018-03-23T12:18:00.678Z,46.50
2018-03-23T12:19:00.578Z,42.20
2018-03-23T12:20:00.479Z,35.40
2018-03-23T12:21:00.368Z,34.90
2018-03-23T12:22:00.264Z,38.90
2018-03-23T12:23:00.163Z,38.90
2018-03-23T12:24:00.058Z,37.40
2018-03-23T12:24:59.954Z,42.90
2018-03-23T12:25:59.851Z,44.20
2018-03-23T12:26:59.748Z,39.00
2018-03-23T12:27:59.644Z,36.30
2018-03-23T12:28:59.570Z,37.20
2018-03-23T12:29:59.442Z,37.00
2018-03-23T12:30:59.334Z,36.50
2018-03-23T12:31:59.261Z,36.90
2018-03-23T12:32:59.128Z,45.10
2018-03-23T12:33:59.041Z,38.30
2018-03-23T12:34:58.960Z,38.00
2018-03-23T12:35:58.817Z,34.80
2018-03-23T12:36:58.703Z,34.00
2018-03-23T12:37:58.619Z,35.00
2018-03-23T12:38:58.496Z,36.80
2018-03-23T12:39:58.404Z,36.00
2018-03-23T12:40:58.289Z,40.40
2018-03-23T12:41:58.186Z,41.40
2018-03-23T12:42:58.083Z,42.00
2018-03-23T12:43:57.982Z,43.70
2018-03-23T12:44:57.876Z,40.90
2018-03-23T12:45:57.773Z,42.40
2018-03-23T12:46:57.670Z,44.40
2018-03-23T12:47:57.566Z,39.80
2018-03-23T12:48:57.464Z,38.60
2018-03-23T12:49:57.360Z,44.40
2018-03-23T12:50:57.308Z,41.10